Time;durP1;ratioP1;P1;durP2;ratioP2;P2;SDS_P1;SDS_P2;PMS_P1;PMS_P2;Temp;Humidity;BMP_temperature;BMP_pressure;BME280_temperature;BME280_humidity;BME280_pressure;Samples;Min_cycle;Max_cycle;Signal;HPM_P1;HPM_P2
2022/10/04 00:00:28;;;;;;;14.95;9.95;;;11.90;99.90;;;;;;4925028;28;20047;-73
2022/10/04 00:03:04;;;;;;;12.52;9.70;;;12.00;99.90;;;;;;4929592;28;20449;-73
2022/10/04 00:05:30;;;;;;;13.80;10.07;;;11.90;99.90;;;;;;4919040;29;20489;-72
2022/10/04 00:08:01;;;;;;;13.07;10.98;;;11.90;99.90;;;;;;4921227;29;20090;-73
2022/10/04 00:10:33;;;;;;;19.00;15.20;;;11.90;99.90;;;;;;4929115;29;20807;-71
2022/10/04 00:13:05;;;;;;;17.55;13.02;;;11.90;99.90;;;;;;4936177;29;20455;-72
2022/10/04 00:15:36;;;;;;;20.67;13.57;;;11.90;99.90;;;;;;4933461;29;20115;-73
2022/10/04 00:18:38;;;;;;;21.67;15.60;;;12.00;99.90;;;;;;4906436;29;20043;-72
2022/10/04 00:21:06;;;;;;;19.25;12.57;;;11.90;99.90;;;;;;4913805;29;20055;-72
2022/10/04 00:23:34;;;;;;;20.60;13.65;;;11.90;99.90;;;;;;4925334;29;20067;-71
2022/10/04 00:26:03;;;;;;;17.85;11.63;;;11.90;99.90;;;;;;4924393;29;20119;-72
2022/10/04 00:28:50;;;;;;;19.23;14.85;;;11.90;99.90;;;;;;4915212;29;20066;-72
2022/10/04 00:31:25;;;;;;;19.50;13.23;;;11.90;99.90;;;;;;4917375;29;20043;-72
2022/10/04 00:33:55;;;;;;;24.13;13.05;;;11.90;99.90;;;;;;4927499;29;20234;-73
2022/10/04 00:36:24;;;;;;;19.05;13.40;;;11.90;99.90;;;;;;4946820;28;20059;-71
2022/10/04 00:39:02;;;;;;;20.30;14.27;;;11.90;99.90;;;;;;4943683;28;20043;-72
2022/10/04 00:41:35;;;;;;;20.30;14.73;;;11.90;99.90;;;;;;4927944;29;20529;-72
2022/10/04 00:44:03;;;;;;;22.67;14.38;;;11.90;99.90;;;;;;4905588;28;20134;-72
2022/10/04 00:46:31;;;;;;;20.60;14.73;;;11.90;99.90;;;;;;4937459;28;20047;-73
2022/10/04 00:49:06;;;;;;;21.30;14.80;;;11.90;99.90;;;;;;4930189;29;20047;-73
2022/10/04 00:51:41;;;;;;;20.25;15.10;;;11.90;99.90;;;;;;4925430;29;20057;-73
2022/10/04 00:54:10;;;;;;;17.98;14.60;;;11.90;99.90;;;;;;4912411;29;20388;-72
2022/10/04 00:56:44;;;;;;;19.13;13.75;;;11.90;99.90;;;;;;4927295;29;20055;-72
2022/10/04 00:59:27;;;;;;;18.98;14.45;;;11.90;99.90;;;;;;4926732;29;20054;-72
2022/10/04 01:02:18;;;;;;;21.73;15.07;;;11.90;99.90;;;;;;4928532;29;20058;-72
2022/10/04 01:05:06;;;;;;;19.45;14.77;;;11.90;99.90;;;;;;4931353;29;20924;-73
2022/10/04 01:08:01;;;;;;;24.02;16.83;;;11.90;99.90;;;;;;4929666;29;20469;-72
2022/10/04 01:10:36;;;;;;;23.90;16.38;;;11.90;99.90;;;;;;4903360;29;20047;-72
2022/10/04 01:13:36;;;;;;;21.55;16.08;;;11.80;99.90;;;;;;4951382;28;20456;-73
2022/10/04 01:16:18;;;;;;;22.77;16.95;;;11.80;99.90;;;;;;4922134;29;20078;-73
2022/10/04 01:18:46;;;;;;;20.25;13.90;;;11.80;99.90;;;;;;4931042;29;20043;-73
2022/10/04 01:21:20;;;;;;;18.80;13.93;;;11.80;99.90;;;;;;4927387;29;20066;-72
2022/10/04 01:24:15;;;;;;;21.30;15.20;;;11.80;99.90;;;;;;4927374;29;20058;-72
2022/10/04 01:26:44;;;;;;;19.77;14.07;;;11.80;99.90;;;;;;4927568;29;20047;-73
2022/10/04 01:29:17;;;;;;;24.30;16.70;;;11.80;99.90;;;;;;4904370;29;20043;-73
2022/10/04 01:31:51;;;;;;;19.13;14.65;;;11.80;99.90;;;;;;4926104;29;20066;-73
2022/10/04 01:34:20;;;;;;;18.45;15.32;;;11.80;99.90;;;;;;4914509;29;20544;-73
2022/10/04 01:36:47;;;;;;;22.05;14.90;;;11.90;99.90;;;;;;4924619;29;20062;-73
2022/10/04 01:39:15;;;;;;;17.77;14.45;;;11.90;99.90;;;;;;4926778;29;20036;-72
2022/10/04 01:42:03;;;;;;;17.88;15.30;;;11.90;99.90;;;;;;4924663;29;20044;-72
2022/10/04 01:44:35;;;;;;;22.25;15.98;;;11.90;99.90;;;;;;4944560;28;20061;-73
2022/10/04 01:47:08;;;;;;;17.77;13.77;;;11.90;99.90;;;;;;4929776;29;20134;-72
2022/10/04 01:49:38;;;;;;;20.77;15.15;;;11.90;99.90;;;;;;4927974;29;20122;-72
2022/10/04 01:52:29;;;;;;;16.98;14.48;;;11.90;99.90;;;;;;4928202;29;20716;-73
2022/10/04 01:55:03;;;;;;;19.27;14.77;;;11.90;99.90;;;;;;4929190;28;20502;-72
2022/10/04 01:57:39;;;;;;;18.23;14.25;;;11.90;99.90;;;;;;4917405;29;20059;-72
2022/10/04 02:00:09;;;;;;;20.85;14.70;;;11.90;99.90;;;;;;4924732;28;20375;-72
2022/10/04 02:03:01;;;;;;;20.83;16.52;;;11.90;99.90;;;;;;4918478;29;20047;-72
2022/10/04 02:05:34;;;;;;;19.73;16.08;;;11.90;99.90;;;;;;4920778;28;20453;-72
2022/10/04 02:08:09;;;;;;;21.88;15.27;;;11.90;99.90;;;;;;4915762;29;20062;-72
2022/10/04 02:10:37;;;;;;;21.88;15.98;;;11.90;99.90;;;;;;4928820;29;20483;-73
2022/10/04 02:13:08;;;;;;;22.35;16.08;;;11.90;99.90;;;;;;4923803;29;20505;-73
2022/10/04 02:15:38;;;;;;;18.10;13.80;;;11.90;99.90;;;;;;4945568;28;20510;-73
2022/10/04 02:18:13;;;;;;;21.17;15.25;;;11.90;99.90;;;;;;4910492;29;20040;-73
2022/10/04 02:20:40;;;;;;;22.13;14.95;;;11.90;99.90;;;;;;4921949;29;20135;-72
2022/10/04 02:23:07;;;;;;;20.95;14.70;;;11.90;99.90;;;;;;4915011;28;20048;-73
2022/10/04 02:25:36;;;;;;;20.35;14.68;;;11.80;99.90;;;;;;4928166;28;20051;-73
2022/10/04 02:28:02;;;;;;;22.75;16.25;;;11.80;99.90;;;;;;4941605;28;20050;-73
2022/10/04 02:30:34;;;;;;;24.80;17.08;;;11.80;99.90;;;;;;4927960;29;20048;-73
2022/10/04 02:33:00;;;;;;;16.08;14.43;;;11.80;99.90;;;;;;4918152;29;20102;-73
2022/10/04 02:35:33;;;;;;;26.75;19.45;;;11.70;99.90;;;;;;4931951;28;20050;-73
2022/10/04 02:38:21;;;;;;;23.13;16.45;;;11.70;99.90;;;;;;4907739;29;21909;-73
2022/10/04 02:41:20;;;;;;;23.05;16.33;;;11.70;99.90;;;;;;4920600;29;20125;-73
2022/10/04 02:44:01;;;;;;;20.85;16.02;;;11.60;99.90;;;;;;4929243;29;20588;-73
2022/10/04 02:46:52;;;;;;;17.85;15.82;;;11.60;99.90;;;;;;4926604;29;20138;-73
2022/10/04 02:49:27;;;;;;;22.42;17.10;;;11.50;99.90;;;;;;4919752;29;20036;-73
2022/10/04 02:52:25;;;;;;;25.33;19.35;;;11.50;99.90;;;;;;4919227;29;20059;-72
2022/10/04 02:55:03;;;;;;;21.00;15.20;;;11.50;99.90;;;;;;4929229;28;20130;-73
2022/10/04 02:57:31;;;;;;;23.77;17.50;;;11.50;99.90;;;;;;4914090;29;20119;-73
2022/10/04 03:00:13;;;;;;;18.63;16.08;;;11.40;99.90;;;;;;4934368;29;20043;-73
2022/10/04 03:02:39;;;;;;;21.35;15.98;;;11.40;99.90;;;;;;4930605;28;20109;-73
2022/10/04 03:05:12;;;;;;;18.75;16.75;;;11.30;99.90;;;;;;4926425;29;20040;-73
2022/10/04 03:07:39;;;;;;;23.85;16.05;;;11.30;99.90;;;;;;4916254;28;20051;-73
2022/10/04 03:10:11;;;;;;;17.17;15.40;;;11.30;99.90;;;;;;4913753;29;20078;-74
2022/10/04 03:12:41;;;;;;;26.13;20.55;;;11.30;99.90;;;;;;4908602;29;20054;-73
2022/10/04 03:15:11;;;;;;;19.33;16.80;;;11.30;99.90;;;;;;4904063;29;20043;-74
2022/10/04 03:17:41;;;;;;;23.77;17.45;;;11.30;99.90;;;;;;4922693;29;20047;-73
2022/10/04 03:20:10;;;;;;;18.80;16.73;;;11.20;99.90;;;;;;4930096;29;20047;-73
2022/10/04 03:22:38;;;;;;;25.48;19.35;;;11.20;99.90;;;;;;4933533;29;20058;-73
2022/10/04 03:25:04;;;;;;;19.48;15.98;;;11.20;99.90;;;;;;4919967;29;20035;-73
2022/10/04 03:27:34;;;;;;;22.55;17.25;;;11.20;99.90;;;;;;4932599;29;20093;-73
2022/10/04 03:30:00;;;;;;;27.25;20.98;;;11.10;99.90;;;;;;4928162;29;20981;-73
2022/10/04 03:32:29;;;;;;;21.10;16.70;;;11.10;99.90;;;;;;4925507;29;20518;-73
2022/10/04 03:35:01;;;;;;;26.73;19.75;;;11.00;99.90;;;;;;4926056;29;20079;-73
2022/10/04 03:37:31;;;;;;;22.20;16.05;;;11.00;99.90;;;;;;4926610;29;20057;-73
2022/10/04 03:39:58;;;;;;;25.08;18.50;;;11.00;99.90;;;;;;4920845;29;20135;-73
2022/10/04 03:42:29;;;;;;;15.93;14.25;;;11.00;99.90;;;;;;4931620;29;20043;-73
2022/10/04 03:45:02;;;;;;;21.13;17.88;;;11.00;99.90;;;;;;4932631;29;20074;-73
2022/10/04 03:47:34;;;;;;;23.42;18.40;;;10.90;99.90;;;;;;4921647;29;20066;-73
2022/10/04 03:50:12;;;;;;;20.55;17.38;;;10.90;99.90;;;;;;4937196;29;20047;-73
2022/10/04 03:52:41;;;;;;;20.88;16.92;;;10.90;99.90;;;;;;4932460;29;20103;-73
2022/10/04 03:55:09;;;;;;;20.00;15.95;;;10.90;99.90;;;;;;4931441;29;20051;-73
2022/10/04 03:57:36;;;;;;;20.48;17.48;;;10.80;99.90;;;;;;4936785;28;20058;-73
2022/10/04 04:00:05;;;;;;;18.33;15.75;;;10.80;99.90;;;;;;4927500;29;20078;-73
2022/10/04 04:02:50;;;;;;;24.80;16.23;;;10.80;99.90;;;;;;4923148;28;20054;-74
2022/10/04 04:05:25;;;;;;;26.85;20.50;;;10.80;99.90;;;;;;4933262;29;20666;-74
2022/10/04 04:08:03;;;;;;;22.55;15.93;;;10.70;99.90;;;;;;4927027;29;20051;-73
2022/10/04 04:10:32;;;;;;;23.42;18.40;;;10.70;99.90;;;;;;4944060;28;20134;-73
2022/10/04 04:13:09;;;;;;;20.05;16.38;;;10.70;99.90;;;;;;4929500;29;20051;-73
2022/10/04 04:15:37;;;;;;;20.30;16.42;;;10.70;99.90;;;;;;4929271;29;20398;-74
2022/10/04 04:18:06;;;;;;;17.83;14.32;;;10.70;99.90;;;;;;4946153;28;20199;-73
2022/10/04 04:20:37;;;;;;;17.83;15.18;;;10.60;99.90;;;;;;4946243;28;20565;-73
2022/10/04 04:23:14;;;;;;;21.98;17.88;;;10.60;99.90;;;;;;4929170;28;20050;-73
2022/10/04 04:25:45;;;;;;;21.20;16.98;;;10.60;99.90;;;;;;4928077;28;20097;-73
2022/10/04 04:28:31;;;;;;;;;;;10.60;99.90;;;;;;4931879;29;20137;-73
2022/10/04 04:31:03;;;;;;;22.15;19.75;;;10.50;99.90;;;;;;4927368;29;19926;-73
2022/10/04 04:33:40;;;;;;;24.98;19.58;;;10.50;99.90;;;;;;4938896;28;20379;-73
2022/10/04 04:36:09;;;;;;;19.98;17.80;;;10.50;99.90;;;;;;4926406;29;20101;-73
2022/10/04 04:39:32;;;;;;;22.05;17.60;;;10.50;99.90;;;;;;4936619;29;20051;-73
2022/10/04 04:41:22;;;;;;;19.83;16.92;;;10.40;99.90;;;;;;4926394;29;20035;-73
2022/10/04 04:43:49;;;;;;;22.58;16.83;;;10.40;99.90;;;;;;4928538;29;20509;-73
2022/10/04 04:46:15;;;;;;;26.60;20.77;;;10.50;99.90;;;;;;4935757;29;20043;-73
2022/10/04 04:48:47;;;;;;;22.25;19.85;;;10.40;99.90;;;;;;4932448;29;20059;-73
2022/10/04 04:51:20;;;;;;;24.52;20.70;;;10.40;99.90;;;;;;4924525;29;20051;-73
2022/10/04 04:53:48;;;;;;;22.48;19.63;;;10.40;99.90;;;;;;4914393;29;20134;-73
2022/10/04 04:56:18;;;;;;;28.15;22.38;;;10.50;99.90;;;;;;4924873;28;20414;-73
2022/10/04 04:58:46;;;;;;;25.75;23.05;;;10.40;99.90;;;;;;4920914;28;20035;-73
2022/10/04 05:01:22;;;;;;;31.73;22.40;;;10.40;99.90;;;;;;4904639;28;20035;-73
2022/10/04 05:04:10;;;;;;;25.02;20.95;;;10.40;99.90;;;;;;4924193;28;20232;-73
2022/10/04 05:06:38;;;;;;;27.50;23.50;;;10.40;99.90;;;;;;4930331;28;20059;-74
2022/10/04 05:09:05;;;;;;;29.13;26.02;;;10.40;99.90;;;;;;4945433;28;20090;-73
2022/10/04 05:11:37;;;;;;;26.55;23.52;;;10.40;99.90;;;;;;4929950;28;20055;-72
2022/10/04 05:14:09;;;;;;;24.52;20.27;;;10.30;99.90;;;;;;4942642;28;20051;-74
2022/10/04 05:16:44;;;;;;;30.73;26.15;;;10.30;99.90;;;;;;4937318;28;20094;-73
2022/10/04 05:19:23;;;;;;;25.42;22.67;;;10.30;99.90;;;;;;4926727;28;20035;-73
2022/10/04 05:21:53;;;;;;;27.55;23.38;;;10.30;99.90;;;;;;4927323;28;20929;-73
2022/10/04 05:24:42;;;;;;;23.52;21.13;;;10.30;99.90;;;;;;4924456;28;20058;-73
2022/10/04 05:27:15;;;;;;;25.02;20.70;;;10.30;99.90;;;;;;4938264;28;20058;-73
2022/10/04 05:30:02;;;;;;;29.83;24.23;;;10.30;99.90;;;;;;4921078;28;20395;-73
2022/10/04 05:32:38;;;;;;;30.77;23.98;;;10.20;99.90;;;;;;4922798;28;20055;-73
2022/10/04 05:35:18;;;;;;;26.27;23.50;;;10.20;99.90;;;;;;4916797;28;20047;-73
2022/10/04 05:38:06;;;;;;;38.35;30.48;;;10.20;99.90;;;;;;4939035;28;20084;-73
2022/10/04 05:40:52;;;;;;;26.00;23.35;;;10.20;99.90;;;;;;4917504;28;20548;-73
2022/10/04 05:43:37;;;;;;;30.45;24.02;;;10.20;99.90;;;;;;4920086;28;20058;-73
2022/10/04 05:46:34;;;;;;;38.95;29.17;;;10.10;99.90;;;;;;4941353;28;20446;-71
2022/10/04 05:49:12;;;;;;;35.85;29.80;;;10.10;99.90;;;;;;4943014;28;20138;-76
2022/10/04 05:52:01;;;;;;;37.40;29.42;;;10.10;99.90;;;;;;4907246;28;20636;-76
2022/10/04 05:54:34;;;;;;;26.58;23.83;;;10.10;99.90;;;;;;4924950;28;20046;-76
2022/10/04 05:57:24;;;;;;;33.00;27.77;;;10.10;99.90;;;;;;4914069;29;20134;-77
2022/10/04 06:00:20;;;;;;;34.17;28.75;;;10.10;99.90;;;;;;4924357;29;20657;-76
2022/10/04 06:03:23;;;;;;;35.00;29.05;;;10.10;99.90;;;;;;4915056;28;20375;-76
2022/10/04 06:06:26;;;;;;;29.63;26.45;;;10.10;99.90;;;;;;4924994;29;20510;-76
2022/10/04 06:09:03;;;;;;;30.52;27.13;;;10.10;99.90;;;;;;4926421;28;20053;-76
2022/10/04 06:12:00;;;;;;;33.67;29.98;;;10.10;99.90;;;;;;4922783;29;20130;-77
2022/10/04 06:14:57;;;;;;;29.48;26.48;;;10.10;99.90;;;;;;4863220;29;20058;-76
2022/10/04 06:17:25;;;;;;;30.92;27.52;;;10.10;99.90;;;;;;4906079;28;20047;-77
2022/10/04 06:20:11;;;;;;;33.05;26.45;;;10.10;99.90;;;;;;4945263;28;20047;-77
2022/10/04 06:22:45;;;;;;;34.40;30.13;;;10.10;99.90;;;;;;4924249;29;20062;-76
2022/10/04 06:25:35;;;;;;;36.97;32.53;;;10.10;99.90;;;;;;4911363;29;20051;-77
2022/10/04 06:28:10;;;;;;;;;;;10.10;99.90;;;;;;4913460;29;20043;-76
2022/10/04 06:31:14;;;;;;;34.30;30.15;;;10.00;99.90;;;;;;4936158;29;19934;-76
2022/10/04 06:33:46;;;;;;;39.47;33.03;;;10.00;99.90;;;;;;4890465;28;20070;-76
2022/10/04 06:36:33;;;;;;;34.60;28.75;;;10.10;99.90;;;;;;4935970;29;20041;-76
2022/10/04 06:39:11;;;;;;;34.95;31.30;;;10.10;99.90;;;;;;4929964;29;20074;-76
2022/10/04 06:41:49;;;;;;;32.25;28.85;;;10.10;99.90;;;;;;4922095;29;20052;-77
2022/10/04 06:44:51;;;;;;;31.65;28.33;;;10.10;99.90;;;;;;4914050;29;20118;-76
2022/10/04 06:47:49;;;;;;;33.88;30.27;;;10.20;99.90;;;;;;4924533;29;20051;-76
2022/10/04 06:50:35;;;;;;;33.67;30.20;;;10.20;99.90;;;;;;4929764;29;20043;-76
2022/10/04 06:53:16;;;;;;;35.05;31.38;;;10.20;99.90;;;;;;4928521;29;20043;-76
2022/10/04 06:55:45;;;;;;;40.15;35.42;;;10.30;99.90;;;;;;4928390;29;20055;-76
2022/10/04 06:58:44;;;;;;;39.28;35.13;;;10.30;99.90;;;;;;4927350;29;20074;-76
2022/10/04 07:01:33;;;;;;;34.70;31.17;;;10.40;99.90;;;;;;4934170;28;20050;-77
2022/10/04 07:04:04;;;;;;;38.75;34.70;;;10.50;99.90;;;;;;4918578;29;20075;-76
2022/10/04 07:07:22;;;;;;;35.88;32.38;;;10.60;99.90;;;;;;4925998;28;20051;-77
2022/10/04 07:09:43;;;;;;;34.22;30.73;;;10.70;99.90;;;;;;4911046;29;20684;-76
2022/10/04 07:12:15;;;;;;;33.38;29.90;;;10.80;99.90;;;;;;4941283;28;20039;-76
2022/10/04 07:14:47;;;;;;;35.45;31.98;;;10.90;99.90;;;;;;4926349;29;20407;-75
2022/10/04 07:17:20;;;;;;;32.28;28.77;;;11.00;99.90;;;;;;4928111;29;20404;-76
2022/10/04 07:19:50;;;;;;;31.38;28.30;;;11.10;99.90;;;;;;4926840;29;20066;-76
2022/10/04 07:22:25;;;;;;;30.67;27.63;;;11.20;99.90;;;;;;4929930;29;20043;-76
2022/10/04 07:25:11;;;;;;;29.98;27.17;;;11.30;99.90;;;;;;4925827;29;20133;-75
2022/10/04 07:31:31;;;;;;;29.35;26.40;;;11.40;99.90;;;;;;4925673;29;20146;-76
2022/10/04 07:34:22;;;;;;;28.98;25.90;;;11.50;99.90;;;;;;4922418;29;20505;-76
2022/10/04 07:36:58;;;;;;;29.67;26.67;;;11.50;99.90;;;;;;4916757;29;20055;-76
2022/10/04 07:39:29;;;;;;;29.55;26.73;;;11.60;99.90;;;;;;4929127;28;20387;-76
2022/10/04 07:42:14;;;;;;;29.50;26.80;;;11.60;99.90;;;;;;4935269;28;20055;-76
2022/10/04 07:44:45;;;;;;;28.95;26.10;;;11.60;99.90;;;;;;4921573;29;20051;-76
2022/10/04 07:47:26;;;;;;;26.10;23.55;;;11.70;99.90;;;;;;4916279;29;20141;-77
2022/10/04 07:49:53;;;;;;;27.25;24.48;;;11.90;99.90;;;;;;4917272;29;20043;-77
2022/10/04 07:52:34;;;;;;;25.23;22.73;;;12.10;99.90;;;;;;4930530;29;20043;-77
2022/10/04 07:55:51;;;;;;;23.92;21.33;;;12.40;99.90;;;;;;4923956;29;20047;-77
2022/10/04 07:58:36;;;;;;;23.95;21.40;;;12.70;99.90;;;;;;4911287;28;20055;-77
2022/10/04 08:01:29;;;;;;;21.83;19.35;;;13.10;99.90;;;;;;4923526;29;20039;-78
2022/10/04 08:04:27;;;;;;;22.75;18.75;;;13.30;99.90;;;;;;4922216;29;20118;-77
2022/10/04 08:07:02;;;;;;;21.75;18.50;;;13.50;99.90;;;;;;4914577;29;20589;-77
2022/10/04 08:10:01;;;;;;;19.75;17.73;;;13.60;99.90;;;;;;4930072;29;20055;-76
2022/10/04 08:12:48;;;;;;;21.70;16.40;;;13.60;99.90;;;;;;4930181;29;20126;-77
2022/10/04 08:15:35;;;;;;;18.67;16.58;;;13.60;99.90;;;;;;4935287;29;20059;-77
2022/10/04 08:18:07;;;;;;;23.23;17.65;;;13.60;99.90;;;;;;4928246;29;20506;-76
2022/10/04 08:20:47;;;;;;;19.35;16.70;;;13.50;99.90;;;;;;4916786;28;20253;-77
2022/10/04 08:23:19;;;;;;;19.55;17.63;;;13.50;99.90;;;;;;4941293;28;20051;-77
2022/10/04 08:25:45;;;;;;;20.00;17.80;;;13.40;99.90;;;;;;4938095;29;20126;-76
2022/10/04 08:31:54;;;;;;;18.15;16.23;;;13.30;99.90;;;;;;4932163;29;20502;-77
2022/10/04 08:34:43;;;;;;;18.98;16.52;;;13.40;99.90;;;;;;4927235;29;20051;-77
2022/10/04 08:37:36;;;;;;;18.17;15.35;;;13.50;99.90;;;;;;4930368;28;20035;-76
2022/10/04 08:40:32;;;;;;;16.77;14.88;;;13.70;99.90;;;;;;4907349;29;20682;-76
2022/10/04 08:43:15;;;;;;;17.48;13.80;;;14.00;99.90;;;;;;4927680;29;20063;-76
2022/10/04 08:46:08;;;;;;;15.18;13.57;;;14.10;99.90;;;;;;4944323;28;20085;-76
2022/10/04 08:49:08;;;;;;;17.58;14.40;;;14.20;99.90;;;;;;4946066;28;20051;-78
2022/10/04 08:51:55;;;;;;;18.23;14.70;;;14.30;99.90;;;;;;4945580;28;20055;-78
2022/10/04 08:54:53;;;;;;;15.98;12.75;;;14.40;99.90;;;;;;4946452;28;20546;-78
2022/10/04 08:57:38;;;;;;;17.05;13.25;;;14.60;99.90;;;;;;4903861;29;20642;-77
2022/10/04 09:00:19;;;;;;;17.35;13.25;;;14.70;99.90;;;;;;4916202;29;20040;-76
2022/10/04 09:03:25;;;;;;;15.32;13.60;;;14.70;99.90;;;;;;4915481;29;21289;-77
2022/10/04 09:06:02;;;;;;;18.48;14.10;;;14.80;99.90;;;;;;4927609;29;20127;-77
2022/10/04 09:09:01;;;;;;;16.05;13.80;;;14.80;99.90;;;;;;4922233;29;20164;-77
2022/10/04 09:11:44;;;;;;;15.85;14.15;;;14.80;99.90;;;;;;4911863;29;20526;-77
2022/10/04 09:14:37;;;;;;;15.65;13.40;;;14.70;99.90;;;;;;4915253;29;20048;-77
2022/10/04 09:17:16;;;;;;;15.73;12.75;;;14.70;99.90;;;;;;4914172;29;20047;-77
2022/10/04 09:19:49;;;;;;;19.23;13.40;;;14.70;99.90;;;;;;4901362;29;20046;-77
2022/10/04 09:22:34;;;;;;;15.93;13.48;;;14.70;99.90;;;;;;4907388;29;20051;-77
2022/10/04 09:25:21;;;;;;;16.38;14.55;;;14.70;99.90;;;;;;4924140;29;20190;-77
2022/10/04 09:28:08;;;;;;;15.15;13.55;;;14.70;99.90;;;;;;4917133;29;20044;-78
2022/10/04 09:30:37;;;;;;;16.98;13.77;;;14.70;99.90;;;;;;4896917;29;20043;-77
2022/10/04 09:33:40;;;;;;;15.40;13.52;;;14.70;99.90;;;;;;4922238;29;20043;-77
2022/10/04 09:36:15;;;;;;;18.80;13.43;;;14.80;99.90;;;;;;4898930;29;20052;-77
2022/10/04 09:39:08;;;;;;;14.27;12.63;;;14.90;99.90;;;;;;4900473;29;20156;-76
2022/10/04 09:41:37;;;;;;;14.38;11.85;;;15.10;99.90;;;;;;4909771;29;20095;-77
2022/10/04 09:44:28;;;;;;;15.07;12.25;;;15.20;99.90;;;;;;4925191;29;20074;-77
2022/10/04 09:47:30;;;;;;;15.85;11.05;;;15.30;99.90;;;;;;4919300;29;20134;-77
2022/10/04 09:50:16;;;;;;;18.20;11.45;;;15.40;99.90;;;;;;4914191;29;20415;-77
2022/10/04 09:53:04;;;;;;;14.80;10.80;;;15.50;99.90;;;;;;4908303;29;20059;-77
2022/10/04 09:55:45;;;;;;;12.20;9.70;;;15.50;99.90;;;;;;4936529;28;20062;-77
2022/10/04 09:58:27;;;;;;;12.70;9.75;;;15.60;99.90;;;;;;4921169;28;20060;-77
2022/10/04 10:01:13;;;;;;;11.25;9.90;;;15.70;99.90;;;;;;4925412;28;20067;-77
2022/10/04 10:04:07;;;;;;;12.20;9.27;;;15.70;99.90;;;;;;4939541;28;20142;-77
2022/10/04 10:06:40;;;;;;;11.77;8.57;;;15.70;99.90;;;;;;4915348;29;20078;-76
2022/10/04 10:09:14;;;;;;;11.73;8.82;;;15.80;99.90;;;;;;4928075;28;20051;-77
2022/10/04 10:14:58;;;;;;;9.75;8.00;;;15.90;99.90;;;;;;4933263;28;20272;-76
2022/10/04 10:17:46;;;;;;;11.98;9.48;;;16.00;99.90;;;;;;4934262;28;20506;-77
2022/10/04 10:20:31;;;;;;;13.80;9.45;;;16.00;99.90;;;;;;4920519;28;20098;-76
2022/10/04 10:23:12;;;;;;;13.30;9.35;;;16.00;99.90;;;;;;4928088;29;20638;-77
2022/10/04 10:26:22;;;;;;;11.00;9.27;;;16.00;99.90;;;;;;4907021;28;20525;-76
2022/10/04 10:29:30;;;;;;;12.43;8.55;;;16.10;99.90;;;;;;4924669;28;20893;-78
2022/10/04 10:32:14;;;;;;;11.75;7.78;;;16.10;99.90;;;;;;4910877;28;20051;-76
2022/10/04 10:34:41;;;;;;;11.70;7.68;;;16.20;99.90;;;;;;4928130;29;20043;-76
2022/10/04 10:37:21;;;;;;;11.90;7.30;;;16.30;99.90;;;;;;4907208;28;20517;-77
2022/10/04 10:40:24;;;;;;;11.13;7.68;;;16.30;99.90;;;;;;4914450;29;20047;-76
2022/10/04 10:43:17;;;;;;;12.50;7.90;;;16.40;99.90;;;;;;4943314;28;20054;-76
2022/10/04 10:46:04;;;;;;;11.23;8.30;;;16.50;99.90;;;;;;4941630;28;20063;-76
2022/10/04 10:48:52;;;;;;;10.18;6.85;;;16.50;99.90;;;;;;4927138;29;20051;-77
2022/10/04 10:51:23;;;;;;;13.32;7.32;;;16.60;99.90;;;;;;4938801;28;20087;-78
2022/10/04 10:54:28;;;;;;;12.48;6.85;;;16.60;99.90;;;;;;4920392;29;20055;-77
2022/10/04 10:56:55;;;;;;;10.40;7.18;;;16.60;99.90;;;;;;4901982;29;20055;-75
2022/10/04 10:59:33;;;;;;;8.65;6.82;;;16.70;99.90;;;;;;4919015;29;20071;-75
2022/10/04 11:02:46;;;;;;;13.93;7.90;;;16.70;99.90;;;;;;4942543;28;20047;-76
2022/10/04 11:05:46;;;;;;;10.07;7.60;;;16.80;99.90;;;;;;4872444;29;20132;-76
2022/10/04 11:08:39;;;;;;;10.82;7.20;;;16.80;99.90;;;;;;4866483;29;20088;-76
2022/10/04 11:11:13;;;;;;;11.30;7.65;;;16.90;99.90;;;;;;4934242;28;20144;-77
2022/10/04 11:14:10;;;;;;;11.85;8.13;;;17.00;99.90;;;;;;4915781;28;20055;-75
2022/10/04 11:16:56;;;;;;;12.05;8.07;;;17.00;99.90;;;;;;4913472;28;20515;-75
2022/10/04 11:19:43;;;;;;;9.75;7.40;;;17.00;99.90;;;;;;4921120;29;20067;-75
2022/10/04 11:22:20;;;;;;;11.43;8.43;;;16.90;99.90;;;;;;4916378;29;20396;-75
2022/10/04 11:25:17;;;;;;;11.38;7.55;;;16.90;99.90;;;;;;4929171;29;20524;-75
2022/10/04 11:28:02;;;;;;;9.00;7.15;;;17.00;99.90;;;;;;4926236;29;20050;-74
2022/10/04 11:30:53;;;;;;;11.15;7.88;;;17.10;99.90;;;;;;4918521;28;20058;-75
2022/10/04 11:33:56;;;;;;;10.10;7.50;;;17.10;99.90;;;;;;4921130;29;20223;-75
2022/10/04 11:36:42;;;;;;;10.75;6.95;;;17.10;99.90;;;;;;4917555;28;20486;-75
2022/10/04 11:39:43;;;;;;;11.20;8.05;;;17.20;99.90;;;;;;4927601;29;20059;-76
2022/10/04 11:42:32;;;;;;;13.02;6.97;;;17.20;99.90;;;;;;4914529;29;20402;-75
2022/10/04 11:45:16;;;;;;;11.63;7.40;;;17.20;99.90;;;;;;4918433;28;21526;-75
2022/10/04 11:48:06;;;;;;;10.45;7.63;;;17.30;99.90;;;;;;4921578;29;20564;-75
2022/10/04 11:50:39;;;;;;;12.10;8.20;;;17.40;99.90;;;;;;4938345;28;20058;-75
2022/10/04 11:53:55;;;;;;;12.90;8.43;;;17.40;99.90;;;;;;4925881;29;20573;-76
2022/10/04 11:56:32;;;;;;;15.00;8.93;;;17.40;99.90;;;;;;4861001;28;20046;-76
2022/10/04 11:59:07;;;;;;;10.30;8.00;;;17.30;99.90;;;;;;4917651;29;20051;-75
2022/10/04 12:02:01;;;;;;;12.07;7.55;;;17.30;99.90;;;;;;4921356;29;20055;-75
2022/10/04 12:04:59;;;;;;;11.68;7.47;;;17.30;99.90;;;;;;4879807;29;20055;-75
2022/10/04 12:07:49;;;;;;;11.23;7.53;;;17.40;99.90;;;;;;4917659;28;20048;-76
2022/10/04 12:10:38;;;;;;;11.55;7.13;;;17.40;99.90;;;;;;4917163;29;20063;-75
2022/10/04 12:13:22;;;;;;;10.95;7.68;;;17.50;99.90;;;;;;4936412;28;20426;-76
2022/10/04 12:16:28;;;;;;;12.43;7.85;;;17.50;99.90;;;;;;4941404;28;20058;-76
2022/10/04 12:19:19;;;;;;;11.52;7.43;;;17.60;99.90;;;;;;4915883;29;20039;-76
2022/10/04 12:22:13;;;;;;;11.90;7.25;;;17.60;99.90;;;;;;4937336;28;20139;-76
2022/10/04 12:24:58;;;;;;;11.65;7.53;;;17.60;99.90;;;;;;4934385;28;20051;-75
2022/10/04 12:28:06;;;;;;;11.57;8.15;;;17.60;99.90;;;;;;4924867;29;20158;-76
2022/10/04 12:30:59;;;;;;;10.85;7.55;;;17.70;99.90;;;;;;4910326;29;20056;-76
2022/10/04 12:33:53;;;;;;;11.10;8.10;;;17.60;99.90;;;;;;4918664;29;20094;-75
2022/10/04 12:36:47;;;;;;;8.57;6.93;;;17.60;99.90;;;;;;4891717;29;20059;-75
2022/10/04 12:39:26;;;;;;;14.15;8.75;;;17.70;99.90;;;;;;4924919;29;20122;-75
2022/10/04 12:42:13;;;;;;;11.43;8.70;;;17.80;99.90;;;;;;4920602;29;20475;-76
2022/10/04 12:45:17;;;;;;;9.82;7.93;;;17.80;99.90;;;;;;4932190;28;20059;-76
2022/10/04 12:48:22;;;;;;;12.00;8.93;;;17.80;99.90;;;;;;4934851;28;20067;-75
2022/10/04 12:51:31;;;;;;;12.20;8.68;;;17.80;99.90;;;;;;4884314;29;20143;-75
2022/10/04 12:54:15;;;;;;;9.77;8.43;;;17.80;99.90;;;;;;4917077;29;20398;-75
2022/10/04 12:56:47;;;;;;;13.68;9.07;;;17.80;99.90;;;;;;4915327;28;20055;-76
2022/10/04 12:59:46;;;;;;;11.82;9.60;;;17.90;99.90;;;;;;4925337;28;20082;-76
2022/10/04 13:02:30;;;;;;;13.00;9.07;;;17.90;99.90;;;;;;4919058;29;20055;-76
2022/10/04 13:05:18;;;;;;;11.90;9.68;;;17.80;99.90;;;;;;4922438;29;20083;-76
2022/10/04 13:08:04;;;;;;;13.65;8.38;;;17.90;99.90;;;;;;4939515;28;20287;-76
2022/10/04 13:10:56;;;;;;;11.55;8.27;;;17.80;99.90;;;;;;4933696;28;20055;-76
2022/10/04 13:14:00;;;;;;;13.57;8.25;;;17.80;99.90;;;;;;4916419;29;20042;-76
2022/10/04 13:16:48;;;;;;;11.07;7.07;;;17.80;99.90;;;;;;4889461;29;20546;-76
2022/10/04 13:19:41;;;;;;;10.65;6.65;;;17.80;99.90;;;;;;4895005;29;20130;-76
2022/10/04 13:22:31;;;;;;;10.02;7.00;;;17.90;99.90;;;;;;4910391;29;20134;-76
2022/10/04 13:25:10;;;;;;;8.50;6.45;;;18.00;99.90;;;;;;4930975;28;20054;-76
2022/10/04 13:27:57;;;;;;;12.43;7.05;;;18.00;99.90;;;;;;4921983;29;20082;-76
2022/10/04 13:30:25;;;;;;;12.13;7.45;;;18.00;99.90;;;;;;4943228;28;20047;-76
2022/10/04 13:33:09;;;;;;;11.63;7.10;;;18.00;99.90;;;;;;4926966;29;20593;-76
2022/10/04 13:35:53;;;;;;;9.88;6.63;;;17.90;99.90;;;;;;4923298;29;20387;-76
2022/10/04 13:38:47;;;;;;;8.73;5.82;;;17.70;99.90;;;;;;4915104;29;20254;-76
2022/10/04 13:41:36;;;;;;;7.88;6.45;;;17.60;99.90;;;;;;4927258;28;20044;-76
2022/10/04 13:44:29;;;;;;;9.75;6.65;;;17.60;99.90;;;;;;4916121;29;20066;-76
2022/10/04 13:47:10;;;;;;;9.35;6.97;;;17.70;99.90;;;;;;4942675;28;20416;-76
2022/10/04 13:49:55;;;;;;;10.23;6.45;;;17.80;99.90;;;;;;4938953;28;20087;-75
2022/10/04 13:58:18;;;;;;;11.48;7.07;;;17.90;99.90;;;;;;4924966;29;20044;-76